Cedartown, GA (30125)

3:14 PM EST on December 06, 2016 (GMT -0500)
Dry Creek | | Change Station

Elev 843 ft 34.00 °N, 85.34 °W | Updated 2 seconds ago

Overcast
Overcast
60.4 °F
Feels Like 60.4 °F
N
8.9
Wind Variable Wind from SE
Gusts 12.3 mph

Today
High -- | Low -- °F
--% Chance of Precip.
Yesterday
High -- | Low -- °F
Precip. -- in
Pressure 29.76 in
Visibility 10.0 miles
Clouds Mostly Cloudy 900 ft
Mostly Cloudy 1600 ft
Overcast 2700 ft
Dew Point 58 °F
Humidity 92%
Rainfall 0.00 in
Snow Depth Not available.
7:32 AM 5:31 PM
Waxing Crescent, 44% visible
METAR KPUJ 061955Z AUTO 29004KT 10SM BKN009 BKN016 OVC027 17/17 A2976 RMK AO2
Pressure 29.76 in
Visibility 10.0 miles
Clouds Mostly Cloudy 900 ft
Mostly Cloudy 1600 ft
Overcast 2700 ft
Dew Point 58 °F
Humidity 92%
Rainfall 0.00 in
Snow Depth Not available.
7:32 AM 5:31 PM
Waxing Crescent, 44% visible
METAR KPUJ 061955Z AUTO 29004KT 10SM BKN009 BKN016 OVC027 17/17 A2976 RMK AO2

10-Day Weather Forecast

Almanac

Astronomy

Dec. 06, 2016 Rise Set
Actual Time
Civil Twilight
Nautical Twilight
Astronomical Twilight
Moon
Length of Visible Light
Length of Day
Tomorrow will be .
, % of the Moon is Illuminated

Today's Extremes

State Highs State Lows

Community

WunderPhotos

Upload Photos

1,956,022 photos uploaded!

WunderBlog® & News

Nearby

Air Quality

  Air Quality AQ Index Pollutant
Not available.

Snow Depth

Station Depth Elevation

Earthquake Activity

City Distance Mag. Time & Date
Minimum magnitude displayed is 2.5.

Coastal Water Temperatures

Place Temperature

Stations

Nearby Weather Stations

Station Location Temp. Windchill Dew Point Humidity Wind Precip. Elev Updated Type
                   

Watches & Warnings

There are currently no watches in effect.